createdAt,value
2018-06-14T00:01:10.459Z,100.00
2018-06-14T00:03:41.283Z,100.00
2018-06-14T00:06:12.285Z,100.00
2018-06-14T00:08:43.219Z,100.00
2018-06-14T00:11:14.414Z,100.00
2018-06-14T00:13:45.471Z,100.00
2018-06-14T00:16:16.589Z,100.00
2018-06-14T00:18:47.860Z,100.00
2018-06-14T00:21:18.997Z,100.00
2018-06-14T00:23:49.865Z,100.00
2018-06-14T00:26:20.977Z,100.00
2018-06-14T00:28:52.021Z,100.00
2018-06-14T00:31:24.936Z,100.00
2018-06-14T00:33:55.901Z,100.00
2018-06-14T00:36:26.866Z,100.00
2018-06-14T00:38:58.075Z,100.00
2018-06-14T00:41:29.120Z,100.00
2018-06-14T00:44:00.252Z,100.00
2018-06-14T00:46:31.291Z,100.00
2018-06-14T00:49:02.346Z,100.00
2018-06-14T00:51:33.348Z,100.00
2018-06-14T00:54:04.320Z,100.00
2018-06-14T00:56:45.611Z,100.00
2018-06-14T00:59:16.451Z,100.00
2018-06-14T01:01:49.175Z,100.00
2018-06-14T01:04:20.291Z,100.00
2018-06-14T01:06:51.424Z,100.00
2018-06-14T01:09:22.377Z,100.00
2018-06-14T01:11:53.498Z,100.00
2018-06-14T01:14:24.973Z,100.00
2018-06-14T01:16:55.908Z,100.00
2018-06-14T01:19:26.780Z,100.00
2018-06-14T01:21:57.793Z,100.00
2018-06-14T01:24:28.870Z,100.00
2018-06-14T01:27:00.720Z,100.00
2018-06-14T01:29:31.797Z,100.00
2018-06-14T01:32:02.884Z,100.00
2018-06-14T01:34:34.179Z,100.00
2018-06-14T01:37:06.244Z,100.00
2018-06-14T01:39:36.992Z,100.00
2018-06-14T01:42:08.898Z,100.00
2018-06-14T01:44:39.822Z,100.00
2018-06-14T01:47:10.883Z,100.00
2018-06-14T01:49:41.793Z,100.00
2018-06-14T01:52:12.864Z,100.00
2018-06-14T01:54:43.887Z,100.00
2018-06-14T01:57:15.779Z,100.00
2018-06-14T01:59:46.994Z,100.00
2018-06-14T02:02:18.162Z,100.00
2018-06-14T02:04:49.192Z,100.00
2018-06-14T02:07:21.092Z,100.00
2018-06-14T02:09:53.002Z,100.00
2018-06-14T02:12:24.085Z,100.00
2018-06-14T02:14:54.939Z,100.00
2018-06-14T02:17:26.813Z,100.00
2018-06-14T02:19:57.963Z,100.00
2018-06-14T02:22:28.938Z,100.00
2018-06-14T02:25:00.208Z,100.00
2018-06-14T02:27:31.363Z,100.00
2018-06-14T02:30:02.351Z,100.00
2018-06-14T02:32:34.222Z,100.00
2018-06-14T02:35:05.335Z,100.00
2018-06-14T02:37:41.880Z,100.00
2018-06-14T02:40:13.645Z,100.00
2018-06-14T02:43:00.130Z,100.00
2018-06-14T02:45:36.495Z,100.00
2018-06-14T02:48:07.058Z,100.00
2018-06-14T02:50:37.650Z,100.00
2018-06-14T02:53:08.297Z,100.00
2018-06-14T02:55:38.698Z,100.00
2018-06-14T02:58:09.323Z,100.00
2018-06-14T03:00:39.971Z,100.00
2018-06-14T03:03:10.699Z,100.00
2018-06-14T03:05:41.262Z,100.00
2018-06-14T03:08:12.492Z,100.00
2018-06-14T03:10:43.030Z,94.75
2018-06-14T03:13:13.741Z,88.62
2018-06-14T03:15:44.233Z,82.73
2018-06-14T03:18:14.860Z,79.05
2018-06-14T03:20:45.518Z,77.88
2018-06-14T03:23:16.271Z,75.69
2018-06-14T03:25:47.811Z,71.58
2018-06-14T03:28:19.164Z,69.66
2018-06-14T03:30:49.803Z,68.47
2018-06-14T03:33:21.148Z,64.54
2018-06-14T03:35:51.666Z,61.70
2018-06-14T03:38:22.168Z,59.83
2018-06-14T03:40:52.980Z,59.09
2018-06-14T03:43:23.657Z,60.61
2018-06-14T03:45:54.394Z,59.85
2018-06-14T03:48:24.885Z,53.73
2018-06-14T03:50:55.314Z,50.51
2018-06-14T03:53:25.882Z,52.89
2018-06-14T03:55:56.839Z,50.96
2018-06-14T03:58:28.232Z,50.28
2018-06-14T04:00:58.859Z,50.73
2018-06-14T04:03:30.327Z,53.42
2018-06-14T04:06:00.693Z,60.01
2018-06-14T04:08:31.864Z,61.74
2018-06-14T04:11:04.530Z,59.82
2018-06-14T04:13:35.563Z,57.77
2018-06-14T04:16:07.662Z,58.49
2018-06-14T04:18:38.599Z,54.36
2018-06-14T04:21:09.568Z,54.97
2018-06-14T04:23:40.700Z,56.10
2018-06-14T04:26:11.761Z,55.33
2018-06-14T04:28:44.284Z,53.38
2018-06-14T04:31:15.115Z,49.63
2018-06-14T04:33:47.023Z,45.32
2018-06-14T04:36:18.140Z,49.73
2018-06-14T04:38:50.309Z,48.10
2018-06-14T04:41:21.401Z,49.83
2018-06-14T04:43:52.391Z,51.38
2018-06-14T04:46:23.430Z,57.74
2018-06-14T04:48:54.440Z,53.72
2018-06-14T04:51:25.476Z,53.78
2018-06-14T04:53:56.723Z,52.51
2018-06-14T04:56:27.739Z,52.47
2018-06-14T04:58:59.109Z,57.36
2018-06-14T05:01:30.024Z,57.67
2018-06-14T05:04:01.907Z,57.42
2018-06-14T05:06:34.059Z,61.60
2018-06-14T05:09:07.281Z,57.74
2018-06-14T05:11:38.431Z,56.27
2018-06-14T05:14:09.790Z,52.26
2018-06-14T05:16:41.877Z,49.38
2018-06-14T05:19:12.901Z,48.05
2018-06-14T05:21:43.992Z,47.54
2018-06-14T05:24:15.485Z,46.96
2018-06-14T05:26:47.385Z,52.40
2018-06-14T05:29:18.380Z,50.28
2018-06-14T05:31:49.344Z,43.57
2018-06-14T05:34:20.458Z,40.51
2018-06-14T05:36:51.674Z,44.00
2018-06-14T05:39:23.755Z,46.27
2018-06-14T05:41:55.477Z,50.02
2018-06-14T05:44:26.526Z,52.39
2018-06-14T05:46:57.574Z,45.38
2018-06-14T05:49:29.362Z,48.77
2018-06-14T05:52:00.279Z,50.81
2018-06-14T05:54:31.261Z,49.59
2018-06-14T05:57:02.416Z,48.57
2018-06-14T05:59:34.497Z,53.07
2018-06-14T06:02:05.426Z,54.55
2018-06-14T06:04:36.573Z,54.38
2018-06-14T06:07:07.872Z,52.88
2018-06-14T06:09:40.210Z,53.28
2018-06-14T06:12:12.292Z,54.63
2018-06-14T06:14:43.559Z,50.71
2018-06-14T06:17:15.413Z,51.95
2018-06-14T06:19:46.734Z,50.30
2018-06-14T06:22:17.908Z,52.83
2018-06-14T06:24:49.186Z,50.02
2018-06-14T06:27:20.251Z,51.69
2018-06-14T06:29:52.368Z,52.25
2018-06-14T06:32:23.450Z,46.59
2018-06-14T06:34:54.323Z,45.40
2018-06-14T06:37:25.616Z,47.89
2018-06-14T06:39:57.446Z,53.49
2018-06-14T06:42:29.158Z,53.51
2018-06-14T06:45:00.157Z,50.37
2018-06-14T06:47:31.176Z,47.13
2018-06-14T06:50:03.453Z,42.65
2018-06-14T06:52:38.612Z,40.06
2018-06-14T06:55:09.692Z,37.93
2018-06-14T06:57:40.584Z,35.49
2018-06-14T07:00:12.537Z,35.40
2018-06-14T07:02:43.612Z,33.24
2018-06-14T07:05:14.401Z,28.60
2018-06-14T07:07:45.276Z,26.89
2018-06-14T07:10:16.434Z,30.78
2018-06-14T07:12:50.760Z,29.25
2018-06-14T07:15:21.855Z,28.23
2018-06-14T07:17:52.926Z,27.60
2018-06-14T07:20:23.791Z,28.59
2018-06-14T07:22:54.814Z,32.63
2018-06-14T07:25:26.890Z,32.68
2018-06-14T07:27:58.015Z,35.75
2018-06-14T07:30:29.801Z,37.87
2018-06-14T07:33:00.893Z,34.17
2018-06-14T07:35:31.924Z,32.28
2018-06-14T07:38:03.049Z,30.17
2018-06-14T07:40:34.399Z,31.15
2018-06-14T07:43:06.532Z,29.78
2018-06-14T07:45:37.566Z,29.78
2018-06-14T07:48:08.858Z,30.79
2018-06-14T07:50:40.061Z,33.59
2018-06-14T07:53:10.995Z,33.72
2018-06-14T07:55:42.811Z,32.84
2018-06-14T07:58:13.937Z,32.30
2018-06-14T08:00:44.914Z,34.88
2018-06-14T08:03:16.204Z,35.89
2018-06-14T08:05:47.451Z,38.43
2018-06-14T08:08:18.418Z,37.30
2018-06-14T08:10:49.504Z,39.96
2018-06-14T08:13:22.897Z,42.63
2018-06-14T08:15:53.997Z,45.87
2018-06-14T08:18:25.238Z,48.83
2018-06-14T08:20:56.628Z,50.20
2018-06-14T08:23:28.120Z,53.31
2018-06-14T08:25:59.314Z,54.34
2018-06-14T08:28:30.197Z,53.66
2018-06-14T08:31:03.063Z,56.54
2018-06-14T08:33:34.140Z,57.41
2018-06-14T08:36:05.148Z,57.80
2018-06-14T08:38:36.336Z,57.70
2018-06-14T08:41:07.547Z,55.87
2018-06-14T08:43:38.580Z,57.46
2018-06-14T08:46:09.637Z,58.53
2018-06-14T08:48:40.368Z,59.67
2018-06-14T08:51:11.603Z,57.67
2018-06-14T08:53:42.864Z,60.03
2018-06-14T08:56:14.102Z,60.21
2018-06-14T08:58:45.225Z,61.49
2018-06-14T09:01:16.314Z,62.69
2018-06-14T09:03:47.579Z,63.22
2018-06-14T09:06:18.604Z,64.19
2018-06-14T09:08:50.169Z,63.13
2018-06-14T09:11:21.489Z,63.41
2018-06-14T09:13:52.420Z,66.17
2018-06-14T09:16:23.837Z,64.66
2018-06-14T09:18:55.176Z,65.58
2018-06-14T09:21:26.977Z,65.08
2018-06-14T09:23:58.174Z,65.42
2018-06-14T09:26:29.098Z,65.30
2018-06-14T09:28:59.843Z,65.75
2018-06-14T09:31:30.960Z,66.14
2018-06-14T09:34:01.950Z,64.07
2018-06-14T09:36:34.161Z,64.63
2018-06-14T09:39:06.954Z,66.58
2018-06-14T09:41:38.412Z,64.97
2018-06-14T09:44:09.717Z,64.19
2018-06-14T09:46:41.153Z,65.04
2018-06-14T09:49:16.258Z,63.34
2018-06-14T09:51:48.697Z,64.74
2018-06-14T09:54:19.834Z,63.52
2018-06-14T09:56:51.710Z,62.04
2018-06-14T09:59:23.282Z,64.03
2018-06-14T10:01:55.538Z,64.31
2018-06-14T10:04:26.637Z,65.69
2018-06-14T10:06:58.785Z,65.80
2018-06-14T10:09:29.936Z,63.74
2018-06-14T10:12:01.160Z,63.51
2018-06-14T10:14:32.400Z,63.64
2018-06-14T10:17:04.168Z,63.16
2018-06-14T10:19:35.452Z,62.30
2018-06-14T10:22:06.712Z,64.55
2018-06-14T10:24:37.742Z,65.42
2018-06-14T10:27:08.763Z,65.26
2018-06-14T10:29:41.602Z,65.99
2018-06-14T10:32:12.834Z,64.87
2018-06-14T10:34:43.908Z,63.97
2018-06-14T10:37:15.150Z,65.20
2018-06-14T10:39:46.371Z,67.34
2018-06-14T10:42:17.691Z,65.45
2018-06-14T10:44:48.851Z,65.78
2018-06-14T10:47:20.709Z,63.72
2018-06-14T10:49:51.858Z,64.49
2018-06-14T10:52:25.747Z,65.72
2018-06-14T10:54:57.308Z,65.34
2018-06-14T10:57:28.553Z,64.24
2018-06-14T10:59:59.753Z,64.90
2018-06-14T11:02:30.848Z,63.74
2018-06-14T11:05:01.939Z,65.14
2018-06-14T11:07:33.269Z,63.56
2018-06-14T11:10:04.239Z,64.42
2018-06-14T11:12:35.179Z,67.23
2018-06-14T11:15:07.418Z,63.56
2018-06-14T11:17:38.642Z,65.65
2018-06-14T11:20:09.832Z,64.24
2018-06-14T11:22:43.031Z,64.21
2018-06-14T11:25:14.413Z,67.84
2018-06-14T11:27:46.191Z,67.25
2018-06-14T11:30:18.253Z,67.00
2018-06-14T11:32:49.317Z,67.53
2018-06-14T11:35:21.173Z,68.95
2018-06-14T11:37:52.608Z,69.47
2018-06-14T11:40:24.257Z,67.54
2018-06-14T11:42:55.693Z,68.99
2018-06-14T11:45:26.811Z,68.14
2018-06-14T11:47:57.525Z,66.03
2018-06-14T11:50:28.524Z,67.23
2018-06-14T11:52:59.705Z,67.33
2018-06-14T11:55:30.633Z,67.31
2018-06-14T11:58:32.698Z,68.96
2018-06-14T12:01:03.793Z,67.68
2018-06-14T12:03:35.267Z,68.12
2018-06-14T12:06:06.545Z,68.35
2018-06-14T12:08:37.484Z,68.85
2018-06-14T12:11:09.344Z,68.95
2018-06-14T12:13:41.417Z,66.17
2018-06-14T12:16:12.663Z,67.77
2018-06-14T12:18:44.036Z,70.04
2018-06-14T12:21:15.276Z,64.14
2018-06-14T12:23:47.118Z,66.15
2018-06-14T12:26:18.352Z,67.14
2018-06-14T12:28:50.150Z,67.85
2018-06-14T12:31:21.167Z,67.79
2018-06-14T12:33:52.274Z,66.65
2018-06-14T12:36:23.473Z,61.41
2018-06-14T12:38:54.651Z,64.90
2018-06-14T12:41:25.413Z,68.83
2018-06-14T12:43:57.218Z,68.67
2018-06-14T12:46:28.131Z,62.92
2018-06-14T12:48:59.420Z,65.15
2018-06-14T12:51:30.543Z,64.05
2018-06-14T12:54:01.880Z,68.10
2018-06-14T12:56:33.002Z,66.19
2018-06-14T12:59:04.164Z,66.72
2018-06-14T13:01:37.099Z,67.91
2018-06-14T13:04:08.404Z,70.45
2018-06-14T13:06:39.639Z,70.83
2018-06-14T13:09:12.750Z,69.73
2018-06-14T13:11:43.731Z,70.34
2018-06-14T13:14:14.866Z,72.75
2018-06-14T13:16:45.985Z,71.44
2018-06-14T13:19:18.263Z,69.51
2018-06-14T13:21:49.354Z,70.43
2018-06-14T13:24:21.445Z,65.04
2018-06-14T13:26:52.568Z,69.21
2018-06-14T13:29:25.709Z,70.61
2018-06-14T13:31:58.164Z,70.37
2018-06-14T13:34:29.286Z,69.80
2018-06-14T13:37:00.668Z,69.96
2018-06-14T13:39:31.906Z,67.26
2018-06-14T13:42:03.057Z,62.24
2018-06-14T13:44:34.005Z,61.76
2018-06-14T13:47:04.942Z,63.88
2018-06-14T13:49:36.157Z,64.26
2018-06-14T13:52:08.859Z,63.79
2018-06-14T13:54:40.897Z,64.51
2018-06-14T13:57:12.073Z,67.61
2018-06-14T13:59:43.180Z,67.96
2018-06-14T14:02:14.526Z,71.14
2018-06-14T14:04:45.724Z,73.56
2018-06-14T14:07:20.719Z,73.75
2018-06-14T14:09:52.070Z,70.47
2018-06-14T14:12:23.290Z,69.76
2018-06-14T14:14:55.597Z,70.98
2018-06-14T14:17:28.002Z,68.52
2018-06-14T14:19:59.279Z,61.60
2018-06-14T14:22:31.108Z,65.20
2018-06-14T14:25:02.358Z,67.93
2018-06-14T14:27:33.226Z,62.43
2018-06-14T14:30:06.214Z,64.41
2018-06-14T14:32:37.395Z,66.65
2018-06-14T14:35:08.832Z,66.16
2018-06-14T14:37:39.973Z,65.09
2018-06-14T14:40:11.061Z,63.89
2018-06-14T14:42:42.092Z,66.51
2018-06-14T14:45:13.013Z,63.22
2018-06-14T14:47:43.953Z,56.95
2018-06-14T14:50:15.259Z,63.81
2018-06-14T14:52:46.349Z,70.08
2018-06-14T14:55:18.005Z,70.36
2018-06-14T14:57:49.295Z,71.05
2018-06-14T15:00:20.606Z,73.04
2018-06-14T15:02:52.843Z,70.77
2018-06-14T15:08:00.990Z,67.75
2018-06-14T15:10:33.598Z,70.49
2018-06-14T15:13:04.361Z,67.49
2018-06-14T15:15:35.845Z,64.88
2018-06-14T15:18:06.851Z,71.74
2018-06-14T15:20:38.150Z,71.00
2018-06-14T15:23:09.130Z,72.41
2018-06-14T15:25:40.122Z,72.64
2018-06-14T15:28:12.275Z,74.62
2018-06-14T15:30:44.274Z,77.62
2018-06-14T15:33:15.083Z,77.30
2018-06-14T15:35:45.778Z,75.92
2018-06-14T15:38:16.381Z,76.85
2018-06-14T15:40:48.503Z,75.80
2018-06-14T15:43:19.558Z,77.75
2018-06-14T15:45:50.620Z,77.40
2018-06-14T15:48:21.757Z,77.87
2018-06-14T15:50:52.856Z,78.28
2018-06-14T15:53:24.903Z,78.25
2018-06-14T15:56:11.493Z,78.98
2018-06-14T15:58:46.491Z,80.47
2018-06-14T16:01:18.542Z,80.01
2018-06-14T16:03:49.829Z,80.14
2018-06-14T16:06:21.161Z,81.62
2018-06-14T16:08:52.371Z,83.03
2018-06-14T16:11:23.807Z,84.72
2018-06-14T16:13:55.389Z,84.61
2018-06-14T16:16:26.793Z,85.15
2018-06-14T16:19:04.157Z,85.77
2018-06-14T16:21:36.086Z,86.76
2018-06-14T16:24:07.143Z,85.53
2018-06-14T16:26:38.320Z,86.04
2018-06-14T16:29:09.816Z,86.63
2018-06-14T16:31:41.816Z,86.61
2018-06-14T16:34:13.572Z,88.03
2018-06-14T16:36:44.635Z,88.97
2018-06-14T16:39:15.819Z,90.15
2018-06-14T16:41:47.366Z,90.69
2018-06-14T16:44:18.392Z,91.27
2018-06-14T16:46:49.601Z,90.59
2018-06-14T16:49:20.586Z,91.65
2018-06-14T16:51:52.698Z,92.25
2018-06-14T16:54:23.798Z,93.03
2018-06-14T16:56:54.857Z,94.14
2018-06-14T16:59:26.433Z,94.51
2018-06-14T17:01:58.350Z,94.88
2018-06-14T17:04:29.578Z,94.60
2018-06-14T17:07:00.802Z,95.98
2018-06-14T17:09:32.005Z,96.72
2018-06-14T17:12:03.395Z,97.14
2018-06-14T17:14:34.893Z,96.88
2018-06-14T17:17:06.120Z,97.52
2018-06-14T17:19:43.037Z,97.64
2018-06-14T17:22:14.268Z,97.79
2018-06-14T17:24:46.015Z,98.29
2018-06-14T17:27:17.301Z,97.91
2018-06-14T17:29:53.087Z,98.15
2018-06-14T17:32:25.035Z,99.02
2018-06-14T17:34:56.135Z,100.00
2018-06-14T17:37:27.192Z,99.91
2018-06-14T17:39:58.336Z,100.00
2018-06-14T17:42:29.512Z,100.00
2018-06-14T17:45:00.628Z,100.00
2018-06-14T17:47:32.506Z,100.00
2018-06-14T17:50:03.733Z,100.00
2018-06-14T17:52:35.082Z,100.00
2018-06-14T17:55:07.419Z,100.00
2018-06-14T17:57:50.385Z,100.00
2018-06-14T18:00:21.815Z,100.00
2018-06-14T18:02:52.948Z,100.00
2018-06-14T18:05:24.030Z,100.00
2018-06-14T18:07:55.293Z,100.00
2018-06-14T18:10:30.137Z,100.00
2018-06-14T18:13:01.290Z,100.00
2018-06-14T18:15:32.486Z,100.00
2018-06-14T18:20:44.395Z,100.00
2018-06-14T18:23:15.851Z,100.00
2018-06-14T18:25:48.137Z,100.00
2018-06-14T18:28:19.812Z,100.00
2018-06-14T18:30:51.466Z,100.00
2018-06-14T18:33:25.811Z,100.00
2018-06-14T18:35:58.641Z,100.00
2018-06-14T18:38:29.920Z,100.00
2018-06-14T18:41:01.600Z,100.00
2018-06-14T18:43:33.061Z,100.00
2018-06-14T18:46:04.756Z,100.00
2018-06-14T18:48:39.373Z,100.00
2018-06-14T18:51:11.122Z,100.00
2018-06-14T18:53:43.029Z,100.00
2018-06-14T18:56:15.197Z,100.00
2018-06-14T19:01:16.074Z,100.00
2018-06-14T19:03:57.132Z,100.00
2018-06-14T19:06:28.458Z,100.00
2018-06-14T19:08:59.604Z,100.00
2018-06-14T19:11:32.759Z,100.00
2018-06-14T19:14:05.375Z,100.00
2018-06-14T19:16:37.154Z,100.00
2018-06-14T19:19:08.784Z,100.00
2018-06-14T19:21:51.232Z,100.00
2018-06-14T19:24:25.132Z,100.00
2018-06-14T19:26:56.721Z,100.00
2018-06-14T19:29:28.005Z,100.00
2018-06-14T19:31:59.211Z,100.00
2018-06-14T19:34:30.248Z,100.00
2018-06-14T19:37:01.298Z,100.00
2018-06-14T19:39:32.764Z,100.00
2018-06-14T19:42:04.980Z,100.00
2018-06-14T19:44:36.118Z,100.00
2018-06-14T19:47:07.978Z,100.00
2018-06-14T19:49:39.252Z,100.00
2018-06-14T19:52:10.369Z,100.00
2018-06-14T19:54:43.060Z,100.00
2018-06-14T19:57:14.789Z,100.00
2018-06-14T19:59:46.836Z,100.00
2018-06-14T20:02:19.494Z,100.00
2018-06-14T20:04:52.007Z,100.00
2018-06-14T20:07:23.277Z,100.00
2018-06-14T20:09:55.164Z,100.00
2018-06-14T20:12:26.420Z,100.00
2018-06-14T20:14:57.768Z,100.00
2018-06-14T20:17:29.321Z,100.00
2018-06-14T20:20:00.438Z,100.00
2018-06-14T20:22:31.459Z,100.00
2018-06-14T20:25:02.507Z,100.00
2018-06-14T20:27:33.794Z,100.00
2018-06-14T20:30:05.272Z,100.00
2018-06-14T20:32:36.689Z,100.00
2018-06-14T20:35:08.648Z,100.00
2018-06-14T20:37:39.826Z,100.00
2018-06-14T20:40:11.251Z,100.00
2018-06-14T20:42:42.438Z,100.00
2018-06-14T20:45:13.580Z,100.00
2018-06-14T20:47:44.713Z,100.00
2018-06-14T20:50:16.991Z,100.00
2018-06-14T20:52:49.003Z,100.00
2018-06-14T20:55:20.305Z,100.00
2018-06-14T20:57:51.632Z,100.00
2018-06-14T21:00:22.910Z,100.00
2018-06-14T21:02:54.804Z,100.00
2018-06-14T21:05:26.786Z,100.00
2018-06-14T21:07:57.866Z,100.00
2018-06-14T21:10:29.820Z,100.00
2018-06-14T21:13:00.951Z,100.00
2018-06-14T21:15:33.174Z,100.00
2018-06-14T21:18:04.171Z,100.00
2018-06-14T21:20:35.422Z,100.00
2018-06-14T21:23:07.834Z,100.00
2018-06-14T21:25:38.918Z,100.00
2018-06-14T21:28:10.124Z,100.00
2018-06-14T21:30:41.225Z,100.00
2018-06-14T21:33:12.821Z,100.00
2018-06-14T21:35:44.968Z,100.00
2018-06-14T21:38:16.296Z,100.00
2018-06-14T21:40:48.262Z,100.00
2018-06-14T21:43:19.306Z,100.00
2018-06-14T21:45:50.502Z,100.00
2018-06-14T21:48:21.482Z,100.00
2018-06-14T21:50:52.533Z,100.00
2018-06-14T21:53:23.666Z,100.00
2018-06-14T21:55:54.847Z,100.00
2018-06-14T21:58:25.679Z,100.00
2018-06-14T22:00:57.990Z,100.00
2018-06-14T22:03:34.047Z,100.00
2018-06-14T22:06:05.276Z,100.00
2018-06-14T22:08:37.313Z,100.00
2018-06-14T22:11:09.177Z,100.00
2018-06-14T22:13:40.373Z,100.00
2018-06-14T22:16:11.371Z,100.00
2018-06-14T22:18:42.401Z,100.00
2018-06-14T22:21:13.759Z,100.00
2018-06-14T22:23:45.032Z,100.00
2018-06-14T22:26:16.533Z,100.00
2018-06-14T22:28:47.650Z,100.00
2018-06-14T22:31:19.275Z,100.00
2018-06-14T22:34:00.855Z,100.00
2018-06-14T22:36:32.872Z,100.00
2018-06-14T22:39:04.248Z,100.00
2018-06-14T22:41:35.332Z,100.00
2018-06-14T22:44:06.409Z,100.00
2018-06-14T22:46:37.470Z,100.00
2018-06-14T22:49:08.763Z,100.00
2018-06-14T22:51:50.293Z,100.00
2018-06-14T22:54:21.278Z,100.00
2018-06-14T22:56:52.211Z,100.00
2018-06-14T22:59:23.419Z,100.00
2018-06-14T23:01:54.805Z,100.00
2018-06-14T23:04:27.116Z,100.00
2018-06-14T23:06:59.555Z,100.00
2018-06-14T23:10:42.535Z,100.00
2018-06-14T23:13:14.788Z,100.00
2018-06-14T23:15:45.870Z,100.00
2018-06-14T23:18:18.252Z,100.00
2018-06-14T23:20:50.003Z,100.00
2018-06-14T23:23:21.184Z,100.00
2018-06-14T23:25:52.482Z,100.00
2018-06-14T23:28:23.451Z,100.00
2018-06-14T23:30:54.659Z,100.00
2018-06-14T23:33:25.872Z,100.00
2018-06-14T23:35:57.045Z,100.00
2018-06-14T23:38:28.958Z,100.00
2018-06-14T23:41:00.105Z,100.00
2018-06-14T23:43:31.373Z,100.00
2018-06-14T23:46:02.629Z,100.00
2018-06-14T23:48:34.551Z,100.00
2018-06-14T23:51:05.581Z,100.00
2018-06-14T23:53:36.519Z,100.00
2018-06-14T23:56:07.431Z,100.00
2018-06-14T23:58:38.400Z,100.00
